sensor_id;sensor_type;location;lat;lon;timestamp;P1;durP1;ratioP1;P2;durP2;ratioP2
7969;SDS011;4030;52.362;9.206;2023-07-02T00:01:48;1.50;;;1.10;;
7969;SDS011;4030;52.362;9.206;2023-07-02T00:04:14;4.18;;;1.23;;
7969;SDS011;4030;52.362;9.206;2023-07-02T00:06:47;2.17;;;1.20;;
7969;SDS011;4030;52.362;9.206;2023-07-02T00:09:14;1.75;;;1.23;;
7969;SDS011;4030;52.362;9.206;2023-07-02T00:11:41;4.80;;;1.33;;
7969;SDS011;4030;52.362;9.206;2023-07-02T00:14:09;3.40;;;1.27;;
7969;SDS011;4030;52.362;9.206;2023-07-02T00:16:37;4.10;;;1.15;;
7969;SDS011;4030;52.362;9.206;2023-07-02T00:19:06;3.72;;;1.42;;
7969;SDS011;4030;52.362;9.206;2023-07-02T00:21:31;3.33;;;1.70;;
7969;SDS011;4030;52.362;9.206;2023-07-02T00:23:58;2.13;;;1.20;;
7969;SDS011;4030;52.362;9.206;2023-07-02T00:26:25;4.13;;;1.17;;
7969;SDS011;4030;52.362;9.206;2023-07-02T00:28:55;1.83;;;1.30;;
7969;SDS011;4030;52.362;9.206;2023-07-02T00:31:22;2.05;;;1.20;;
7969;SDS011;4030;52.362;9.206;2023-07-02T00:33:48;2.03;;;1.30;;
7969;SDS011;4030;52.362;9.206;2023-07-02T00:36:15;3.40;;;1.35;;
7969;SDS011;4030;52.362;9.206;2023-07-02T00:38:41;2.30;;;1.33;;
7969;SDS011;4030;52.362;9.206;2023-07-02T00:41:09;2.15;;;1.20;;
7969;SDS011;4030;52.362;9.206;2023-07-02T00:43:35;4.43;;;1.38;;
7969;SDS011;4030;52.362;9.206;2023-07-02T00:46:01;3.03;;;1.40;;
7969;SDS011;4030;52.362;9.206;2023-07-02T00:48:28;3.95;;;1.40;;
7969;SDS011;4030;52.362;9.206;2023-07-02T00:50:55;3.80;;;1.30;;
7969;SDS011;4030;52.362;9.206;2023-07-02T00:53:21;2.90;;;1.38;;
7969;SDS011;4030;52.362;9.206;2023-07-02T00:55:46;3.88;;;1.42;;
7969;SDS011;4030;52.362;9.206;2023-07-02T00:58:12;2.17;;;1.25;;
7969;SDS011;4030;52.362;9.206;2023-07-02T01:00:40;2.88;;;1.40;;
7969;SDS011;4030;52.362;9.206;2023-07-02T01:03:08;4.80;;;1.60;;
7969;SDS011;4030;52.362;9.206;2023-07-02T01:05:34;3.05;;;1.40;;
7969;SDS011;4030;52.362;9.206;2023-07-02T01:08:03;2.47;;;1.40;;
7969;SDS011;4030;52.362;9.206;2023-07-02T01:10:29;3.38;;;1.50;;
7969;SDS011;4030;52.362;9.206;2023-07-02T01:12:56;4.80;;;1.50;;
7969;SDS011;4030;52.362;9.206;2023-07-02T01:15:25;2.45;;;1.45;;
7969;SDS011;4030;52.362;9.206;2023-07-02T01:17:52;2.53;;;1.40;;
7969;SDS011;4030;52.362;9.206;2023-07-02T01:20:19;3.58;;;1.25;;
7969;SDS011;4030;52.362;9.206;2023-07-02T01:22:45;1.63;;;1.30;;
7969;SDS011;4030;52.362;9.206;2023-07-02T01:25:16;2.90;;;1.60;;
7969;SDS011;4030;52.362;9.206;2023-07-02T01:27:42;3.05;;;1.50;;
7969;SDS011;4030;52.362;9.206;2023-07-02T01:30:08;1.95;;;1.33;;
7969;SDS011;4030;52.362;9.206;2023-07-02T01:32:35;5.15;;;1.50;;
7969;SDS011;4030;52.362;9.206;2023-07-02T01:35:02;3.90;;;1.40;;
7969;SDS011;4030;52.362;9.206;2023-07-02T01:37:28;4.53;;;1.58;;
7969;SDS011;4030;52.362;9.206;2023-07-02T01:39:53;5.82;;;1.50;;
7969;SDS011;4030;52.362;9.206;2023-07-02T01:42:19;5.25;;;1.65;;
7969;SDS011;4030;52.362;9.206;2023-07-02T01:44:48;2.95;;;1.80;;
7969;SDS011;4030;52.362;9.206;2023-07-02T01:47:16;3.13;;;1.42;;
7969;SDS011;4030;52.362;9.206;2023-07-02T01:49:41;2.22;;;1.40;;
7969;SDS011;4030;52.362;9.206;2023-07-02T01:52:07;4.63;;;1.98;;
7969;SDS011;4030;52.362;9.206;2023-07-02T01:54:34;3.40;;;1.35;;
7969;SDS011;4030;52.362;9.206;2023-07-02T01:57:00;5.18;;;1.60;;
7969;SDS011;4030;52.362;9.206;2023-07-02T01:59:26;3.20;;;1.50;;
7969;SDS011;4030;52.362;9.206;2023-07-02T02:01:51;3.45;;;1.63;;
7969;SDS011;4030;52.362;9.206;2023-07-02T02:04:17;3.85;;;1.60;;
7969;SDS011;4030;52.362;9.206;2023-07-02T02:06:43;2.17;;;1.60;;
7969;SDS011;4030;52.362;9.206;2023-07-02T02:09:09;3.78;;;1.60;;
7969;SDS011;4030;52.362;9.206;2023-07-02T02:11:37;3.38;;;1.80;;
7969;SDS011;4030;52.362;9.206;2023-07-02T02:14:05;3.03;;;1.70;;
7969;SDS011;4030;52.362;9.206;2023-07-02T02:16:31;4.80;;;1.60;;
7969;SDS011;4030;52.362;9.206;2023-07-02T02:18:58;2.30;;;1.30;;
7969;SDS011;4030;52.362;9.206;2023-07-02T02:21:24;2.40;;;1.50;;
7969;SDS011;4030;52.362;9.206;2023-07-02T02:23:50;3.53;;;1.92;;
7969;SDS011;4030;52.362;9.206;2023-07-02T02:26:15;3.20;;;1.52;;
7969;SDS011;4030;52.362;9.206;2023-07-02T02:28:42;3.38;;;1.75;;
7969;SDS011;4030;52.362;9.206;2023-07-02T02:31:07;3.35;;;1.60;;
7969;SDS011;4030;52.362;9.206;2023-07-02T02:33:34;4.88;;;1.58;;
7969;SDS011;4030;52.362;9.206;2023-07-02T02:36:00;3.78;;;1.70;;
7969;SDS011;4030;52.362;9.206;2023-07-02T02:38:29;4.10;;;1.90;;
7969;SDS011;4030;52.362;9.206;2023-07-02T02:40:54;2.90;;;1.80;;
7969;SDS011;4030;52.362;9.206;2023-07-02T02:43:20;4.05;;;1.73;;
7969;SDS011;4030;52.362;9.206;2023-07-02T02:45:47;3.67;;;1.52;;
7969;SDS011;4030;52.362;9.206;2023-07-02T02:48:12;2.03;;;1.83;;
7969;SDS011;4030;52.362;9.206;2023-07-02T02:50:38;3.83;;;1.75;;
7969;SDS011;4030;52.362;9.206;2023-07-02T02:53:06;3.63;;;1.73;;
7969;SDS011;4030;52.362;9.206;2023-07-02T02:55:32;2.45;;;1.80;;
7969;SDS011;4030;52.362;9.206;2023-07-02T02:57:58;2.88;;;1.80;;
7969;SDS011;4030;52.362;9.206;2023-07-02T03:00:24;3.38;;;1.75;;
7969;SDS011;4030;52.362;9.206;2023-07-02T03:02:50;5.13;;;1.85;;
7969;SDS011;4030;52.362;9.206;2023-07-02T03:05:15;4.10;;;1.70;;
7969;SDS011;4030;52.362;9.206;2023-07-02T03:07:41;3.97;;;1.63;;
7969;SDS011;4030;52.362;9.206;2023-07-02T03:10:07;4.05;;;1.92;;
7969;SDS011;4030;52.362;9.206;2023-07-02T03:12:33;4.80;;;1.75;;
7969;SDS011;4030;52.362;9.206;2023-07-02T03:14:59;2.97;;;1.90;;
7969;SDS011;4030;52.362;9.206;2023-07-02T03:17:25;2.65;;;1.70;;
7969;SDS011;4030;52.362;9.206;2023-07-02T03:19:50;4.55;;;1.75;;
7969;SDS011;4030;52.362;9.206;2023-07-02T03:22:16;4.05;;;1.80;;
7969;SDS011;4030;52.362;9.206;2023-07-02T03:24:42;2.55;;;1.80;;
7969;SDS011;4030;52.362;9.206;2023-07-02T03:27:08;1.83;;;1.67;;
7969;SDS011;4030;52.362;9.206;2023-07-02T03:29:34;4.35;;;1.65;;
7969;SDS011;4030;52.362;9.206;2023-07-02T03:32:00;4.43;;;1.77;;
7969;SDS011;4030;52.362;9.206;2023-07-02T03:34:27;1.80;;;1.70;;
7969;SDS011;4030;52.362;9.206;2023-07-02T03:36:53;2.60;;;1.55;;
7969;SDS011;4030;52.362;9.206;2023-07-02T03:39:18;2.35;;;1.90;;
7969;SDS011;4030;52.362;9.206;2023-07-02T03:41:44;1.80;;;1.50;;
7969;SDS011;4030;52.362;9.206;2023-07-02T03:44:10;2.97;;;1.60;;
7969;SDS011;4030;52.362;9.206;2023-07-02T03:46:36;2.15;;;1.58;;
7969;SDS011;4030;52.362;9.206;2023-07-02T03:49:02;3.35;;;1.80;;
7969;SDS011;4030;52.362;9.206;2023-07-02T03:51:28;3.95;;;1.52;;
7969;SDS011;4030;52.362;9.206;2023-07-02T03:53:58;2.15;;;1.65;;
7969;SDS011;4030;52.362;9.206;2023-07-02T03:56:24;4.07;;;1.90;;
7969;SDS011;4030;52.362;9.206;2023-07-02T03:58:50;3.25;;;1.60;;
7969;SDS011;4030;52.362;9.206;2023-07-02T04:01:15;2.03;;;1.65;;
7969;SDS011;4030;52.362;9.206;2023-07-02T04:03:51;2.80;;;1.83;;
7969;SDS011;4030;52.362;9.206;2023-07-02T04:06:17;2.80;;;1.80;;
7969;SDS011;4030;52.362;9.206;2023-07-02T04:08:43;3.08;;;1.90;;
7969;SDS011;4030;52.362;9.206;2023-07-02T04:11:10;3.10;;;1.80;;
7969;SDS011;4030;52.362;9.206;2023-07-02T04:13:36;2.72;;;1.80;;
7969;SDS011;4030;52.362;9.206;2023-07-02T04:16:03;3.20;;;2.40;;
7969;SDS011;4030;52.362;9.206;2023-07-02T04:18:29;3.95;;;2.20;;
7969;SDS011;4030;52.362;9.206;2023-07-02T04:20:55;2.47;;;1.90;;
7969;SDS011;4030;52.362;9.206;2023-07-02T04:23:23;2.78;;;2.10;;
7969;SDS011;4030;52.362;9.206;2023-07-02T04:25:49;2.90;;;2.20;;
7969;SDS011;4030;52.362;9.206;2023-07-02T04:28:15;3.13;;;2.28;;
7969;SDS011;4030;52.362;9.206;2023-07-02T04:30:41;5.60;;;2.53;;
7969;SDS011;4030;52.362;9.206;2023-07-02T04:33:07;4.63;;;2.58;;
7969;SDS011;4030;52.362;9.206;2023-07-02T04:35:32;3.33;;;2.35;;
7969;SDS011;4030;52.362;9.206;2023-07-02T04:37:59;3.13;;;2.58;;
7969;SDS011;4030;52.362;9.206;2023-07-02T04:40:25;6.47;;;2.83;;
7969;SDS011;4030;52.362;9.206;2023-07-02T04:42:52;4.38;;;2.75;;
7969;SDS011;4030;52.362;9.206;2023-07-02T04:45:22;3.75;;;2.75;;
7969;SDS011;4030;52.362;9.206;2023-07-02T04:47:51;4.57;;;3.17;;
7969;SDS011;4030;52.362;9.206;2023-07-02T04:50:17;5.55;;;3.60;;
7969;SDS011;4030;52.362;9.206;2023-07-02T04:52:43;5.13;;;3.42;;
7969;SDS011;4030;52.362;9.206;2023-07-02T04:55:10;5.15;;;3.30;;
7969;SDS011;4030;52.362;9.206;2023-07-02T04:57:36;5.90;;;3.45;;
7969;SDS011;4030;52.362;9.206;2023-07-02T05:00:02;4.60;;;3.00;;
7969;SDS011;4030;52.362;9.206;2023-07-02T05:02:30;4.40;;;3.35;;
7969;SDS011;4030;52.362;9.206;2023-07-02T05:04:56;4.70;;;3.50;;
7969;SDS011;4030;52.362;9.206;2023-07-02T05:07:22;5.88;;;4.03;;
7969;SDS011;4030;52.362;9.206;2023-07-02T05:09:47;5.55;;;3.50;;
7969;SDS011;4030;52.362;9.206;2023-07-02T05:12:14;5.00;;;4.00;;
7969;SDS011;4030;52.362;9.206;2023-07-02T05:14:40;5.47;;;3.60;;
7969;SDS011;4030;52.362;9.206;2023-07-02T05:17:06;5.72;;;3.67;;
7969;SDS011;4030;52.362;9.206;2023-07-02T05:19:31;5.28;;;3.63;;
7969;SDS011;4030;52.362;9.206;2023-07-02T05:21:57;7.20;;;3.78;;
7969;SDS011;4030;52.362;9.206;2023-07-02T05:24:22;5.43;;;3.67;;
7969;SDS011;4030;52.362;9.206;2023-07-02T05:26:48;6.10;;;3.80;;
7969;SDS011;4030;52.362;9.206;2023-07-02T05:29:15;5.43;;;3.70;;
7969;SDS011;4030;52.362;9.206;2023-07-02T05:31:41;6.57;;;3.75;;
7969;SDS011;4030;52.362;9.206;2023-07-02T05:34:07;5.07;;;3.53;;
7969;SDS011;4030;52.362;9.206;2023-07-02T05:36:32;5.78;;;3.95;;
7969;SDS011;4030;52.362;9.206;2023-07-02T05:38:59;6.35;;;3.65;;
7969;SDS011;4030;52.362;9.206;2023-07-02T05:41:25;6.57;;;3.63;;
7969;SDS011;4030;52.362;9.206;2023-07-02T05:43:55;6.40;;;3.70;;
7969;SDS011;4030;52.362;9.206;2023-07-02T05:46:24;6.60;;;3.63;;
7969;SDS011;4030;52.362;9.206;2023-07-02T05:48:50;5.68;;;3.88;;
7969;SDS011;4030;52.362;9.206;2023-07-02T05:51:22;6.05;;;3.67;;
7969;SDS011;4030;52.362;9.206;2023-07-02T05:53:49;6.40;;;4.00;;
7969;SDS011;4030;52.362;9.206;2023-07-02T05:56:15;6.90;;;3.97;;
7969;SDS011;4030;52.362;9.206;2023-07-02T05:58:42;6.30;;;3.67;;
7969;SDS011;4030;52.362;9.206;2023-07-02T06:01:08;6.50;;;3.92;;
7969;SDS011;4030;52.362;9.206;2023-07-02T06:03:33;6.00;;;4.13;;
7969;SDS011;4030;52.362;9.206;2023-07-02T06:05:59;5.68;;;3.83;;
7969;SDS011;4030;52.362;9.206;2023-07-02T06:08:25;6.90;;;3.80;;
7969;SDS011;4030;52.362;9.206;2023-07-02T06:10:50;6.40;;;4.00;;
7969;SDS011;4030;52.362;9.206;2023-07-02T06:13:16;8.25;;;3.95;;
7969;SDS011;4030;52.362;9.206;2023-07-02T06:15:42;7.90;;;4.38;;
7969;SDS011;4030;52.362;9.206;2023-07-02T06:18:08;6.63;;;4.20;;
7969;SDS011;4030;52.362;9.206;2023-07-02T06:20:34;6.18;;;3.95;;
7969;SDS011;4030;52.362;9.206;2023-07-02T06:22:59;7.35;;;4.13;;
7969;SDS011;4030;52.362;9.206;2023-07-02T06:25:25;5.72;;;3.60;;
7969;SDS011;4030;52.362;9.206;2023-07-02T06:27:51;5.50;;;3.80;;
7969;SDS011;4030;52.362;9.206;2023-07-02T06:30:19;6.88;;;3.80;;
7969;SDS011;4030;52.362;9.206;2023-07-02T06:32:48;7.25;;;4.15;;
7969;SDS011;4030;52.362;9.206;2023-07-02T06:35:14;7.63;;;4.10;;
7969;SDS011;4030;52.362;9.206;2023-07-02T06:37:39;7.53;;;4.47;;
7969;SDS011;4030;52.362;9.206;2023-07-02T06:40:05;7.68;;;4.32;;
7969;SDS011;4030;52.362;9.206;2023-07-02T06:42:31;7.00;;;4.00;;
7969;SDS011;4030;52.362;9.206;2023-07-02T06:44:58;7.45;;;4.20;;
7969;SDS011;4030;52.362;9.206;2023-07-02T06:47:24;5.53;;;4.18;;
7969;SDS011;4030;52.362;9.206;2023-07-02T06:49:51;7.63;;;4.30;;
7969;SDS011;4030;52.362;9.206;2023-07-02T06:52:17;7.50;;;4.43;;
7969;SDS011;4030;52.362;9.206;2023-07-02T06:54:43;7.38;;;4.20;;
7969;SDS011;4030;52.362;9.206;2023-07-02T06:57:08;6.82;;;4.38;;
7969;SDS011;4030;52.362;9.206;2023-07-02T06:59:34;6.57;;;4.38;;
7969;SDS011;4030;52.362;9.206;2023-07-02T07:02:00;8.88;;;5.05;;
7969;SDS011;4030;52.362;9.206;2023-07-02T07:04:27;10.00;;;4.97;;
7969;SDS011;4030;52.362;9.206;2023-07-02T07:06:53;9.60;;;5.20;;
7969;SDS011;4030;52.362;9.206;2023-07-02T07:09:20;9.15;;;5.15;;
7969;SDS011;4030;52.362;9.206;2023-07-02T07:11:46;9.40;;;5.72;;
7969;SDS011;4030;52.362;9.206;2023-07-02T07:14:12;10.23;;;5.40;;
7969;SDS011;4030;52.362;9.206;2023-07-02T07:16:37;8.88;;;5.32;;
7969;SDS011;4030;52.362;9.206;2023-07-02T07:19:04;10.48;;;5.85;;
7969;SDS011;4030;52.362;9.206;2023-07-02T07:21:30;6.85;;;5.05;;
7969;SDS011;4030;52.362;9.206;2023-07-02T07:23:56;9.10;;;5.65;;
7969;SDS011;4030;52.362;9.206;2023-07-02T07:26:21;9.13;;;5.53;;
7969;SDS011;4030;52.362;9.206;2023-07-02T07:28:47;9.05;;;5.63;;
7969;SDS011;4030;52.362;9.206;2023-07-02T07:31:13;8.98;;;5.75;;
7969;SDS011;4030;52.362;9.206;2023-07-02T07:33:38;9.38;;;5.63;;
7969;SDS011;4030;52.362;9.206;2023-07-02T07:36:04;9.43;;;5.90;;
7969;SDS011;4030;52.362;9.206;2023-07-02T07:38:30;9.52;;;5.70;;
7969;SDS011;4030;52.362;9.206;2023-07-02T07:40:55;9.80;;;5.72;;
7969;SDS011;4030;52.362;9.206;2023-07-02T07:43:21;11.27;;;5.93;;
7969;SDS011;4030;52.362;9.206;2023-07-02T07:45:47;9.88;;;5.78;;
7969;SDS011;4030;52.362;9.206;2023-07-02T07:48:13;9.40;;;5.93;;
7969;SDS011;4030;52.362;9.206;2023-07-02T07:50:40;10.48;;;5.82;;
7969;SDS011;4030;52.362;9.206;2023-07-02T07:53:05;9.20;;;5.68;;
7969;SDS011;4030;52.362;9.206;2023-07-02T07:55:31;10.32;;;6.38;;
7969;SDS011;4030;52.362;9.206;2023-07-02T07:57:57;9.70;;;5.47;;
7969;SDS011;4030;52.362;9.206;2023-07-02T08:00:22;10.13;;;6.38;;
7969;SDS011;4030;52.362;9.206;2023-07-02T08:02:49;8.27;;;5.75;;
7969;SDS011;4030;52.362;9.206;2023-07-02T08:05:17;9.63;;;5.68;;
7969;SDS011;4030;52.362;9.206;2023-07-02T08:07:43;8.25;;;5.43;;
7969;SDS011;4030;52.362;9.206;2023-07-02T08:10:09;10.80;;;5.82;;
7969;SDS011;4030;52.362;9.206;2023-07-02T08:12:35;7.53;;;5.15;;
7969;SDS011;4030;52.362;9.206;2023-07-02T08:15:01;8.90;;;5.60;;
7969;SDS011;4030;52.362;9.206;2023-07-02T08:17:26;8.80;;;5.70;;
7969;SDS011;4030;52.362;9.206;2023-07-02T08:19:52;11.73;;;5.53;;
7969;SDS011;4030;52.362;9.206;2023-07-02T08:22:18;7.88;;;5.38;;
7969;SDS011;4030;52.362;9.206;2023-07-02T08:24:43;9.82;;;5.80;;
7969;SDS011;4030;52.362;9.206;2023-07-02T08:27:09;8.68;;;5.65;;
7969;SDS011;4030;52.362;9.206;2023-07-02T08:29:38;8.82;;;5.57;;
7969;SDS011;4030;52.362;9.206;2023-07-02T08:32:04;8.85;;;5.25;;
7969;SDS011;4030;52.362;9.206;2023-07-02T08:34:30;11.52;;;5.63;;
7969;SDS011;4030;52.362;9.206;2023-07-02T08:36:55;10.02;;;5.50;;
7969;SDS011;4030;52.362;9.206;2023-07-02T08:39:21;9.13;;;5.70;;
7969;SDS011;4030;52.362;9.206;2023-07-02T08:41:47;9.55;;;5.68;;
7969;SDS011;4030;52.362;9.206;2023-07-02T08:44:14;8.60;;;5.35;;
7969;SDS011;4030;52.362;9.206;2023-07-02T08:46:44;9.50;;;5.25;;
7969;SDS011;4030;52.362;9.206;2023-07-02T08:49:12;9.00;;;5.97;;
7969;SDS011;4030;52.362;9.206;2023-07-02T08:51:38;10.18;;;5.53;;
7969;SDS011;4030;52.362;9.206;2023-07-02T08:54:03;8.38;;;5.70;;
7969;SDS011;4030;52.362;9.206;2023-07-02T08:56:29;9.25;;;5.70;;
7969;SDS011;4030;52.362;9.206;2023-07-02T08:58:55;8.57;;;5.13;;
7969;SDS011;4030;52.362;9.206;2023-07-02T09:01:21;11.13;;;5.75;;
7969;SDS011;4030;52.362;9.206;2023-07-02T09:03:47;14.88;;;5.03;;
7969;SDS011;4030;52.362;9.206;2023-07-02T09:06:16;8.82;;;6.10;;
7969;SDS011;4030;52.362;9.206;2023-07-02T09:08:43;9.68;;;6.15;;
7969;SDS011;4030;52.362;9.206;2023-07-02T09:11:10;8.88;;;5.47;;
7969;SDS011;4030;52.362;9.206;2023-07-02T09:13:41;8.80;;;6.18;;
7969;SDS011;4030;52.362;9.206;2023-07-02T09:16:09;8.25;;;5.55;;
7969;SDS011;4030;52.362;9.206;2023-07-02T09:19:00;8.23;;;5.43;;
7969;SDS011;4030;52.362;9.206;2023-07-02T09:21:28;8.68;;;5.75;;
7969;SDS011;4030;52.362;9.206;2023-07-02T09:24:23;8.27;;;5.35;;
7969;SDS011;4030;52.362;9.206;2023-07-02T09:26:50;9.10;;;5.93;;
7969;SDS011;4030;52.362;9.206;2023-07-02T09:29:24;8.38;;;5.50;;
7969;SDS011;4030;52.362;9.206;2023-07-02T09:31:59;7.75;;;5.70;;
7969;SDS011;4030;52.362;9.206;2023-07-02T09:34:31;8.40;;;5.55;;
7969;SDS011;4030;52.362;9.206;2023-07-02T09:37:00;8.07;;;5.40;;
7969;SDS011;4030;52.362;9.206;2023-07-02T09:39:28;8.30;;;5.72;;
7969;SDS011;4030;52.362;9.206;2023-07-02T09:41:56;9.95;;;5.60;;
7969;SDS011;4030;52.362;9.206;2023-07-02T09:44:27;6.75;;;5.30;;
7969;SDS011;4030;52.362;9.206;2023-07-02T09:47:07;9.88;;;5.72;;
7969;SDS011;4030;52.362;9.206;2023-07-02T09:49:34;8.02;;;5.30;;
7969;SDS011;4030;52.362;9.206;2023-07-02T09:52:02;8.73;;;5.90;;
7969;SDS011;4030;52.362;9.206;2023-07-02T09:54:33;7.75;;;5.43;;
7969;SDS011;4030;52.362;9.206;2023-07-02T09:57:00;8.43;;;5.22;;
7969;SDS011;4030;52.362;9.206;2023-07-02T09:59:26;7.95;;;4.93;;
7969;SDS011;4030;52.362;9.206;2023-07-02T10:01:53;8.20;;;5.22;;
7969;SDS011;4030;52.362;9.206;2023-07-02T10:04:20;8.38;;;5.05;;
7969;SDS011;4030;52.362;9.206;2023-07-02T10:06:49;7.53;;;5.15;;
7969;SDS011;4030;52.362;9.206;2023-07-02T10:09:18;7.30;;;5.30;;
7969;SDS011;4030;52.362;9.206;2023-07-02T10:12:00;8.05;;;5.13;;
7969;SDS011;4030;52.362;9.206;2023-07-02T10:14:26;8.93;;;5.20;;
7969;SDS011;4030;52.362;9.206;2023-07-02T10:16:52;7.07;;;4.97;;
7969;SDS011;4030;52.362;9.206;2023-07-02T10:19:20;7.43;;;5.03;;
7969;SDS011;4030;52.362;9.206;2023-07-02T10:21:46;8.20;;;5.45;;
7969;SDS011;4030;52.362;9.206;2023-07-02T10:24:25;8.57;;;5.13;;
7969;SDS011;4030;52.362;9.206;2023-07-02T10:26:55;7.70;;;4.70;;
7969;SDS011;4030;52.362;9.206;2023-07-02T10:29:23;6.20;;;4.68;;
7969;SDS011;4030;52.362;9.206;2023-07-02T10:31:50;7.82;;;4.95;;
7969;SDS011;4030;52.362;9.206;2023-07-02T10:34:28;9.15;;;5.03;;
7969;SDS011;4030;52.362;9.206;2023-07-02T10:36:57;7.90;;;4.90;;
7969;SDS011;4030;52.362;9.206;2023-07-02T10:39:28;8.40;;;4.95;;
7969;SDS011;4030;52.362;9.206;2023-07-02T10:42:04;8.02;;;4.93;;
7969;SDS011;4030;52.362;9.206;2023-07-02T10:44:34;6.88;;;4.70;;
7969;SDS011;4030;52.362;9.206;2023-07-02T10:47:15;6.40;;;4.63;;
7969;SDS011;4030;52.362;9.206;2023-07-02T10:49:40;7.18;;;4.93;;
7969;SDS011;4030;52.362;9.206;2023-07-02T10:52:06;8.73;;;4.70;;
7969;SDS011;4030;52.362;9.206;2023-07-02T10:54:39;8.30;;;4.93;;
7969;SDS011;4030;52.362;9.206;2023-07-02T10:57:15;8.63;;;5.05;;
7969;SDS011;4030;52.362;9.206;2023-07-02T10:59:46;6.13;;;4.60;;
7969;SDS011;4030;52.362;9.206;2023-07-02T11:02:13;6.88;;;4.85;;
7969;SDS011;4030;52.362;9.206;2023-07-02T11:04:40;8.75;;;5.07;;
7969;SDS011;4030;52.362;9.206;2023-07-02T11:07:06;5.97;;;4.75;;
7969;SDS011;4030;52.362;9.206;2023-07-02T11:09:31;8.57;;;4.57;;
7969;SDS011;4030;52.362;9.206;2023-07-02T11:11:58;6.18;;;4.40;;
7969;SDS011;4030;52.362;9.206;2023-07-02T11:14:32;6.68;;;4.43;;
7969;SDS011;4030;52.362;9.206;2023-07-02T11:17:01;7.45;;;4.63;;
7969;SDS011;4030;52.362;9.206;2023-07-02T11:19:30;5.75;;;4.53;;
7969;SDS011;4030;52.362;9.206;2023-07-02T11:21:57;7.07;;;4.57;;
7969;SDS011;4030;52.362;9.206;2023-07-02T11:24:31;6.55;;;4.47;;
7969;SDS011;4030;52.362;9.206;2023-07-02T11:26:59;6.38;;;4.70;;
7969;SDS011;4030;52.362;9.206;2023-07-02T11:29:26;6.65;;;4.80;;
7969;SDS011;4030;52.362;9.206;2023-07-02T11:32:09;6.35;;;4.53;;
7969;SDS011;4030;52.362;9.206;2023-07-02T11:34:36;7.47;;;4.60;;
7969;SDS011;4030;52.362;9.206;2023-07-02T11:37:04;7.97;;;4.60;;
7969;SDS011;4030;52.362;9.206;2023-07-02T11:39:30;9.25;;;4.40;;
7969;SDS011;4030;52.362;9.206;2023-07-02T11:41:56;6.97;;;4.47;;
7969;SDS011;4030;52.362;9.206;2023-07-02T11:44:22;6.78;;;4.43;;
7969;SDS011;4030;52.362;9.206;2023-07-02T11:46:48;5.90;;;4.32;;
7969;SDS011;4030;52.362;9.206;2023-07-02T11:49:14;5.93;;;4.30;;
7969;SDS011;4030;52.362;9.206;2023-07-02T11:51:40;6.75;;;4.20;;
7969;SDS011;4030;52.362;9.206;2023-07-02T11:54:13;7.63;;;4.88;;
7969;SDS011;4030;52.362;9.206;2023-07-02T11:56:39;9.38;;;4.53;;
7969;SDS011;4030;52.362;9.206;2023-07-02T11:59:06;6.28;;;4.38;;
7969;SDS011;4030;52.362;9.206;2023-07-02T12:01:32;6.55;;;4.63;;
7969;SDS011;4030;52.362;9.206;2023-07-02T12:03:58;5.75;;;4.57;;
7969;SDS011;4030;52.362;9.206;2023-07-02T12:06:24;7.85;;;5.10;;
7969;SDS011;4030;52.362;9.206;2023-07-02T12:08:49;7.00;;;4.47;;
7969;SDS011;4030;52.362;9.206;2023-07-02T12:11:16;9.20;;;4.85;;
7969;SDS011;4030;52.362;9.206;2023-07-02T12:13:42;8.18;;;4.65;;
7969;SDS011;4030;52.362;9.206;2023-07-02T12:16:07;9.48;;;4.32;;
7969;SDS011;4030;52.362;9.206;2023-07-02T12:18:33;5.95;;;4.55;;
7969;SDS011;4030;52.362;9.206;2023-07-02T12:20:59;6.90;;;4.78;;
7969;SDS011;4030;52.362;9.206;2023-07-02T12:23:24;7.63;;;4.60;;
7969;SDS011;4030;52.362;9.206;2023-07-02T12:25:50;6.85;;;4.53;;
7969;SDS011;4030;52.362;9.206;2023-07-02T12:28:16;6.93;;;3.80;;
7969;SDS011;4030;52.362;9.206;2023-07-02T12:30:41;8.02;;;4.50;;
7969;SDS011;4030;52.362;9.206;2023-07-02T12:33:07;6.28;;;4.30;;
7969;SDS011;4030;52.362;9.206;2023-07-02T12:35:33;7.88;;;4.88;;
7969;SDS011;4030;52.362;9.206;2023-07-02T12:37:59;6.90;;;4.35;;
7969;SDS011;4030;52.362;9.206;2023-07-02T12:40:25;6.55;;;4.80;;
7969;SDS011;4030;52.362;9.206;2023-07-02T12:42:51;8.07;;;4.57;;
7969;SDS011;4030;52.362;9.206;2023-07-02T12:45:16;7.00;;;4.35;;
7969;SDS011;4030;52.362;9.206;2023-07-02T12:47:42;6.88;;;4.30;;
7969;SDS011;4030;52.362;9.206;2023-07-02T12:50:08;6.97;;;4.45;;
7969;SDS011;4030;52.362;9.206;2023-07-02T12:52:35;6.72;;;4.32;;
7969;SDS011;4030;52.362;9.206;2023-07-02T12:55:01;8.25;;;4.18;;
7969;SDS011;4030;52.362;9.206;2023-07-02T12:57:27;7.55;;;4.65;;
7969;SDS011;4030;52.362;9.206;2023-07-02T12:59:53;7.20;;;4.13;;
7969;SDS011;4030;52.362;9.206;2023-07-02T13:02:20;7.05;;;4.25;;
7969;SDS011;4030;52.362;9.206;2023-07-02T13:04:47;6.80;;;4.28;;
7969;SDS011;4030;52.362;9.206;2023-07-02T13:07:13;8.48;;;4.22;;
7969;SDS011;4030;52.362;9.206;2023-07-02T13:09:39;6.65;;;3.83;;
7969;SDS011;4030;52.362;9.206;2023-07-02T13:12:05;6.85;;;4.18;;
7969;SDS011;4030;52.362;9.206;2023-07-02T13:14:31;6.18;;;4.45;;
7969;SDS011;4030;52.362;9.206;2023-07-02T13:16:57;6.82;;;4.53;;
7969;SDS011;4030;52.362;9.206;2023-07-02T13:19:24;6.93;;;4.15;;
7969;SDS011;4030;52.362;9.206;2023-07-02T13:21:50;7.80;;;4.30;;
7969;SDS011;4030;52.362;9.206;2023-07-02T13:24:15;6.75;;;4.03;;
7969;SDS011;4030;52.362;9.206;2023-07-02T13:26:41;7.57;;;3.67;;
7969;SDS011;4030;52.362;9.206;2023-07-02T13:29:06;5.75;;;3.97;;
7969;SDS011;4030;52.362;9.206;2023-07-02T13:31:32;6.43;;;3.78;;
7969;SDS011;4030;52.362;9.206;2023-07-02T13:33:58;6.53;;;3.75;;
7969;SDS011;4030;52.362;9.206;2023-07-02T13:36:23;5.13;;;3.60;;
7969;SDS011;4030;52.362;9.206;2023-07-02T13:38:49;5.60;;;3.70;;
7969;SDS011;4030;52.362;9.206;2023-07-02T13:41:15;5.65;;;3.70;;
7969;SDS011;4030;52.362;9.206;2023-07-02T13:43:40;6.07;;;4.03;;
7969;SDS011;4030;52.362;9.206;2023-07-02T13:46:06;5.05;;;3.28;;
7969;SDS011;4030;52.362;9.206;2023-07-02T13:48:32;5.82;;;3.75;;
7969;SDS011;4030;52.362;9.206;2023-07-02T13:50:57;4.63;;;3.47;;
7969;SDS011;4030;52.362;9.206;2023-07-02T13:53:23;6.63;;;3.80;;
7969;SDS011;4030;52.362;9.206;2023-07-02T13:55:49;5.72;;;3.65;;
7969;SDS011;4030;52.362;9.206;2023-07-02T13:58:14;6.22;;;3.67;;
7969;SDS011;4030;52.362;9.206;2023-07-02T14:00:40;5.70;;;3.40;;
7969;SDS011;4030;52.362;9.206;2023-07-02T14:03:06;4.60;;;3.50;;
7969;SDS011;4030;52.362;9.206;2023-07-02T14:05:31;5.18;;;3.72;;
7969;SDS011;4030;52.362;9.206;2023-07-02T14:07:57;5.00;;;3.65;;
7969;SDS011;4030;52.362;9.206;2023-07-02T14:10:23;5.32;;;3.40;;
7969;SDS011;4030;52.362;9.206;2023-07-02T14:12:49;4.50;;;3.20;;
7969;SDS011;4030;52.362;9.206;2023-07-02T14:15:15;5.03;;;3.45;;
7969;SDS011;4030;52.362;9.206;2023-07-02T14:17:40;5.15;;;3.15;;
7969;SDS011;4030;52.362;9.206;2023-07-02T14:20:07;6.85;;;3.65;;
7969;SDS011;4030;52.362;9.206;2023-07-02T14:22:34;5.68;;;3.30;;
7969;SDS011;4030;52.362;9.206;2023-07-02T14:25:00;5.90;;;3.63;;
7969;SDS011;4030;52.362;9.206;2023-07-02T14:27:26;6.50;;;3.00;;
7969;SDS011;4030;52.362;9.206;2023-07-02T14:29:52;4.65;;;3.38;;
7969;SDS011;4030;52.362;9.206;2023-07-02T14:32:17;3.88;;;3.42;;
7969;SDS011;4030;52.362;9.206;2023-07-02T14:34:43;4.55;;;3.00;;
7969;SDS011;4030;52.362;9.206;2023-07-02T14:37:09;4.88;;;3.20;;
7969;SDS011;4030;52.362;9.206;2023-07-02T14:39:35;4.60;;;3.53;;
7969;SDS011;4030;52.362;9.206;2023-07-02T14:42:00;3.72;;;3.00;;
7969;SDS011;4030;52.362;9.206;2023-07-02T14:44:26;4.03;;;2.83;;
7969;SDS011;4030;52.362;9.206;2023-07-02T14:46:52;6.00;;;3.35;;
7969;SDS011;4030;52.362;9.206;2023-07-02T14:49:17;5.97;;;3.38;;
7969;SDS011;4030;52.362;9.206;2023-07-02T14:51:44;4.60;;;3.22;;
7969;SDS011;4030;52.362;9.206;2023-07-02T14:54:10;5.85;;;3.33;;
7969;SDS011;4030;52.362;9.206;2023-07-02T14:56:35;4.80;;;3.08;;
7969;SDS011;4030;52.362;9.206;2023-07-02T14:59:02;4.43;;;3.20;;
7969;SDS011;4030;52.362;9.206;2023-07-02T15:01:28;5.15;;;3.25;;
7969;SDS011;4030;52.362;9.206;2023-07-02T15:03:54;5.53;;;3.28;;
7969;SDS011;4030;52.362;9.206;2023-07-02T15:06:20;4.22;;;3.13;;
7969;SDS011;4030;52.362;9.206;2023-07-02T15:08:46;5.20;;;3.20;;
7969;SDS011;4030;52.362;9.206;2023-07-02T15:11:13;5.45;;;3.30;;
7969;SDS011;4030;52.362;9.206;2023-07-02T15:13:40;3.97;;;3.00;;